Time;durP1;ratioP1;P1;durP2;ratioP2;P2;SDS_P1;SDS_P2;PMS_P1;PMS_P2;Temp;Humidity;BMP_temperature;BMP_pressure;BME280_temperature;BME280_humidity;BME280_pressure;Samples;Min_cycle;Max_cycle;Signal;HPM_P1;HPM_P2
2023/06/24 00:03:59;;;;;;;17.60;15.80;;;27.20;71.80;;;;;;4772591;56;20994;-36
2023/06/24 00:09:00;;;;;;;17.52;15.68;;;27.20;71.80;;;;;;4671664;56;21058;-38
2023/06/24 00:14:01;;;;;;;18.08;16.27;;;27.20;71.80;;;;;;4685800;56;21010;-37
2023/06/24 00:19:02;;;;;;;16.12;14.63;;;27.20;71.80;;;;;;4723462;56;21039;-37
2023/06/24 00:24:04;;;;;;;17.55;15.80;;;27.20;71.80;;;;;;4725453;56;21002;-38
2023/06/24 00:29:05;;;;;;;16.08;14.30;;;27.20;71.80;;;;;;4735924;56;21520;-38
2023/06/24 00:34:06;;;;;;;16.48;14.85;;;27.20;71.80;;;;;;4698598;56;21153;-37
2023/06/24 00:39:07;;;;;;;16.45;14.85;;;27.20;71.90;;;;;;4726080;56;21109;-38
2023/06/24 00:44:07;;;;;;;15.77;14.20;;;27.20;71.80;;;;;;4662427;56;21524;-36
2023/06/24 00:49:08;;;;;;;16.30;14.75;;;27.20;71.90;;;;;;4680115;56;21014;-36
2023/06/24 00:54:09;;;;;;;17.85;16.05;;;27.20;71.90;;;;;;4839835;56;21030;-36
2023/06/24 00:59:15;;;;;;;16.67;14.85;;;27.20;71.90;;;;;;4698669;56;21086;-36
2023/06/24 01:04:16;;;;;;;15.67;14.03;;;27.20;71.90;;;;;;4692875;56;21106;-37
2023/06/24 01:09:17;;;;;;;17.80;15.50;;;27.20;71.90;;;;;;4666850;56;20986;-34
2023/06/24 01:14:19;;;;;;;16.25;14.55;;;27.20;71.90;;;;;;4684030;56;21003;-33
2023/06/24 01:19:48;;;;;;;15.80;14.27;;;27.20;71.90;;;;;;4679918;56;21537;-36
2023/06/24 01:29:09;;;;;;;16.10;14.52;;;27.20;72.00;;;;;;4659670;60;21010;-37
2023/06/24 01:34:45;;;;;;;16.10;14.50;;;27.20;72.00;;;;;;4666619;56;21046;-37
2023/06/24 01:39:56;;;;;;;15.75;14.25;;;27.20;72.00;;;;;;4714697;56;21512;-36
2023/06/24 01:44:58;;;;;;;16.10;14.50;;;27.20;72.00;;;;;;4679163;56;20982;-36
2023/06/24 01:50:01;;;;;;;14.82;13.43;;;27.20;72.00;;;;;;4661356;56;21585;-36
2023/06/24 01:55:04;;;;;;;15.52;13.93;;;27.20;72.00;;;;;;4776145;55;21069;-36
2023/06/24 02:00:08;;;;;;;15.98;14.38;;;27.20;72.60;;;;;;4659151;58;21022;-38
2023/06/24 02:05:09;;;;;;;15.93;13.93;;;27.20;72.00;;;;;;4674066;56;20958;-35
2023/06/24 02:10:12;;;;;;;16.55;14.38;;;27.20;72.00;;;;;;4659666;60;21042;-37
2023/06/24 02:15:13;;;;;;;15.60;13.13;;;27.20;72.00;;;;;;4659252;60;21038;-36
2023/06/24 02:20:16;;;;;;;15.90;14.38;;;27.20;72.00;;;;;;4747685;56;21054;-38
2023/06/24 02:25:17;;;;;;;15.50;13.90;;;27.20;72.00;;;;;;4765151;56;21484;-36
2023/06/24 02:30:18;;;;;;;15.32;13.82;;;27.20;72.00;;;;;;4702705;56;21899;-36
2023/06/24 02:35:19;;;;;;;15.02;13.60;;;27.20;72.00;;;;;;4659610;60;21078;-37
2023/06/24 02:40:23;;;;;;;15.73;14.23;;;27.20;72.00;;;;;;4756711;56;21034;-37
2023/06/24 02:45:24;;;;;;;14.20;12.88;;;27.20;72.10;;;;;;4670092;56;21014;-37
2023/06/24 02:50:26;;;;;;;14.38;13.07;;;27.20;72.10;;;;;;4659440;60;21050;-36
2023/06/24 02:55:29;;;;;;;14.45;12.95;;;27.20;72.10;;;;;;4806718;55;20998;-42
2023/06/24 03:00:33;;;;;;;13.98;12.57;;;27.20;72.10;;;;;;4659079;60;21014;-35
2023/06/24 03:05:36;;;;;;;14.70;13.20;;;27.20;72.10;;;;;;4660724;56;21014;-36
2023/06/24 03:10:37;;;;;;;15.15;13.62;;;27.20;72.00;;;;;;4697922;56;21002;-38
2023/06/24 03:15:38;;;;;;;14.05;12.75;;;27.20;72.00;;;;;;4752131;56;21018;-37
2023/06/24 03:20:39;;;;;;;14.30;12.90;;;27.20;71.80;;;;;;4680681;56;21022;-37
2023/06/24 03:25:40;;;;;;;14.43;13.13;;;27.20;71.80;;;;;;4659137;60;21503;-37
2023/06/24 03:30:41;;;;;;;14.43;12.98;;;27.20;72.00;;;;;;4691549;56;21054;-36
2023/06/24 03:35:42;;;;;;;13.38;12.07;;;27.20;72.00;;;;;;4906139;55;21635;-35
2023/06/24 03:40:43;;;;;;;12.70;11.52;;;27.20;72.20;;;;;;4659370;60;21079;-37
2023/06/24 03:45:44;;;;;;;12.95;11.75;;;27.20;72.00;;;;;;4706974;56;21546;-35
2023/06/24 03:50:45;;;;;;;13.57;12.27;;;27.20;72.00;;;;;;4757462;56;21158;-35
2023/06/24 03:55:46;;;;;;;13.93;12.50;;;27.20;71.90;;;;;;4682581;55;21520;-35
2023/06/24 04:00:49;;;;;;;12.90;11.52;;;27.20;71.90;;;;;;4666061;56;21026;-35
2023/06/24 04:05:50;;;;;;;13.07;11.88;;;27.10;71.70;;;;;;4660356;56;21469;-32
2023/06/24 04:10:51;;;;;;;14.00;12.60;;;27.10;71.70;;;;;;4731756;56;21010;-36
2023/06/24 04:15:52;;;;;;;12.60;11.40;;;27.10;71.60;;;;;;4753498;56;21508;-37
2023/06/24 04:20:53;;;;;;;12.32;11.12;;;27.10;71.50;;;;;;4691324;56;21532;-36
2023/06/24 04:25:54;;;;;;;13.23;11.82;;;27.10;71.40;;;;;;4744778;56;21046;-37
2023/06/24 04:30:56;;;;;;;12.85;11.65;;;27.10;71.40;;;;;;4687273;56;21002;-37
2023/06/24 04:35:58;;;;;;;13.80;12.40;;;27.10;71.20;;;;;;4659485;60;21094;-37
2023/06/24 04:40:59;;;;;;;12.05;10.85;;;27.10;71.30;;;;;;4726055;56;21492;-37
2023/06/24 04:46:00;;;;;;;11.57;10.43;;;27.10;71.20;;;;;;4677105;56;21051;-35
2023/06/24 04:51:01;;;;;;;12.43;11.15;;;27.10;71.10;;;;;;4659586;60;21042;-36
2023/06/24 04:56:01;;;;;;;12.27;11.05;;;27.10;71.10;;;;;;4680673;56;21006;-37
2023/06/24 05:01:02;;;;;;;12.30;11.00;;;27.10;71.70;;;;;;4677197;56;21552;-36
2023/06/24 05:06:03;;;;;;;11.65;10.27;;;27.10;70.90;;;;;;4659982;60;21548;-36
2023/06/24 05:11:05;;;;;;;12.43;11.15;;;27.10;70.90;;;;;;4659549;60;21071;-36
2023/06/24 05:16:06;;;;;;;11.60;10.50;;;27.10;70.80;;;;;;4666031;56;21635;-36
2023/06/24 05:21:06;;;;;;;11.48;10.25;;;27.10;70.80;;;;;;4677411;56;21126;-35
2023/06/24 05:26:07;;;;;;;10.98;9.88;;;27.10;70.70;;;;;;4659642;60;21082;-37
2023/06/24 05:31:08;;;;;;;12.20;11.00;;;27.10;71.10;;;;;;4677965;56;21010;-36
2023/06/24 05:36:09;;;;;;;11.98;10.77;;;27.10;70.60;;;;;;4690419;56;21034;-38
2023/06/24 05:41:10;;;;;;;11.82;10.60;;;27.10;70.50;;;;;;4815823;55;21006;-38
2023/06/24 05:46:11;;;;;;;11.27;10.18;;;27.10;70.50;;;;;;4784502;56;21585;-35
2023/06/24 05:51:12;;;;;;;12.00;10.80;;;27.10;70.40;;;;;;4683263;56;21488;-35
2023/06/24 05:56:13;;;;;;;11.38;10.27;;;27.10;70.40;;;;;;4761618;56;21077;-38
2023/06/24 06:01:14;;;;;;;11.48;10.27;;;27.10;70.40;;;;;;4679565;56;21539;-35
2023/06/24 06:06:15;;;;;;;11.88;10.65;;;27.10;70.40;;;;;;4698924;56;21006;-36
2023/06/24 06:11:16;;;;;;;11.43;10.23;;;27.00;70.20;;;;;;4804961;56;21018;-36
2023/06/24 06:16:17;;;;;;;11.40;10.20;;;27.10;70.20;;;;;;4692123;56;21484;-37
2023/06/24 06:21:18;;;;;;;11.20;10.02;;;27.10;70.20;;;;;;4678537;56;21070;-37
2023/06/24 06:26:18;;;;;;;11.85;10.30;;;27.10;70.20;;;;;;4659551;57;21545;-36
2023/06/24 06:31:21;;;;;;;11.40;10.30;;;27.10;70.20;;;;;;4737141;56;21058;-36
2023/06/24 06:36:22;;;;;;;10.10;9.10;;;27.10;70.20;;;;;;4751067;56;21497;-38
2023/06/24 06:41:25;;;;;;;11.55;9.50;;;27.10;70.20;;;;;;4718861;56;21014;-37
2023/06/24 06:46:26;;;;;;;10.60;9.50;;;27.10;70.20;;;;;;4750036;56;21887;-38
2023/06/24 06:51:27;;;;;;;10.63;9.60;;;27.10;70.10;;;;;;4680789;56;21034;-34
2023/06/24 06:56:28;;;;;;;10.77;9.68;;;27.10;70.10;;;;;;4706897;56;21878;-37
2023/06/24 07:01:29;;;;;;;10.73;9.70;;;27.10;70.10;;;;;;4792697;56;21715;-37
2023/06/24 07:06:32;;;;;;;10.00;9.00;;;27.10;70.10;;;;;;4659703;60;21420;-36
2023/06/24 07:11:33;;;;;;;9.77;8.80;;;27.10;70.80;;;;;;4709322;56;21485;-35
2023/06/24 07:16:34;;;;;;;10.60;9.57;;;27.10;69.90;;;;;;4680991;56;21003;-38
2023/06/24 07:21:35;;;;;;;12.15;10.85;;;27.10;70.10;;;;;;4709473;56;21078;-35
2023/06/24 07:26:36;;;;;;;11.25;10.15;;;27.10;70.00;;;;;;4784100;56;21515;-36
2023/06/24 07:31:38;;;;;;;13.00;9.70;;;27.10;70.00;;;;;;4692585;56;21034;-38
2023/06/24 07:36:39;;;;;;;12.80;10.70;;;27.10;70.00;;;;;;4746520;56;21480;-36
2023/06/24 07:41:42;;;;;;;11.45;10.23;;;27.10;70.00;;;;;;4748632;56;21006;-36
2023/06/24 07:46:43;;;;;;;11.68;10.48;;;27.10;70.00;;;;;;4659855;56;21488;-37
2023/06/24 07:51:45;;;;;;;11.30;10.10;;;27.10;70.00;;;;;;4715152;56;21487;-36
2023/06/24 07:56:45;;;;;;;10.70;9.60;;;27.10;70.60;;;;;;4719417;56;21584;-38
2023/06/24 08:01:46;;;;;;;11.88;10.68;;;27.10;70.00;;;;;;4658975;60;20998;-39
2023/06/24 08:06:47;;;;;;;11.50;10.40;;;27.10;70.00;;;;;;4668961;56;21448;-35
2023/06/24 08:11:48;;;;;;;11.85;10.65;;;27.10;70.00;;;;;;4744029;56;21018;-38
2023/06/24 08:16:49;;;;;;;10.98;9.98;;;27.10;70.00;;;;;;4864605;55;21006;-36
2023/06/24 08:21:50;;;;;;;11.18;9.98;;;27.10;70.00;;;;;;4787873;56;21086;-34
2023/06/24 08:26:52;;;;;;;12.88;10.70;;;27.10;70.00;;;;;;4658762;60;21540;-34
2023/06/24 08:31:53;;;;;;;15.25;10.88;;;27.10;70.10;;;;;;4697804;56;21560;-37
2023/06/24 08:36:54;;;;;;;11.43;10.25;;;27.10;70.00;;;;;;4722854;56;21038;-35
2023/06/24 08:41:55;;;;;;;12.00;10.75;;;27.10;70.00;;;;;;4658523;60;21536;-35
2023/06/24 08:46:56;;;;;;;11.20;10.10;;;27.10;70.00;;;;;;4659766;60;20998;-37
2023/06/24 08:52:11;;;;;;;10.70;9.60;;;27.10;70.10;;;;;;4668887;56;21033;-33
2023/06/24 08:57:14;;;;;;;12.90;10.90;;;27.10;70.10;;;;;;4707987;56;21448;-36
2023/06/24 09:02:15;;;;;;;12.20;10.90;;;27.10;70.10;;;;;;4693259;56;21520;-35
2023/06/24 09:07:27;;;;;;;12.60;11.35;;;27.10;70.10;;;;;;4659279;60;20986;-35
2023/06/24 09:12:32;;;;;;;12.45;11.15;;;27.10;70.10;;;;;;4774994;56;22294;-34
2023/06/24 09:17:45;;;;;;;13.38;11.50;;;27.10;70.10;;;;;;4685456;56;21066;-38
2023/06/24 09:22:47;;;;;;;12.40;11.10;;;27.10;70.10;;;;;;4722996;56;21694;-37
2023/06/24 09:27:52;;;;;;;12.73;11.48;;;27.10;70.10;;;;;;4675837;56;21326;-36
2023/06/24 09:32:54;;;;;;;12.98;10.95;;;27.10;70.10;;;;;;4670548;56;21018;-38
2023/06/24 09:37:56;;;;;;;14.48;12.30;;;27.10;70.10;;;;;;4710214;56;21018;-37
2023/06/24 09:43:00;;;;;;;12.95;11.63;;;27.10;70.10;;;;;;4659561;56;20998;-37
2023/06/24 09:48:02;;;;;;;12.68;11.43;;;27.10;70.10;;;;;;4739577;56;21484;-36
2023/06/24 09:53:07;;;;;;;13.75;12.15;;;27.10;70.70;;;;;;4777038;56;21516;-38
2023/06/24 09:58:08;;;;;;;14.25;12.43;;;27.10;70.10;;;;;;4665231;56;21584;-37
2023/06/24 10:03:09;;;;;;;13.75;12.07;;;27.10;70.20;;;;;;4770510;56;21075;-37
2023/06/24 10:08:11;;;;;;;13.85;12.37;;;27.10;70.60;;;;;;4674167;56;21482;-36
2023/06/24 10:13:12;;;;;;;14.23;12.15;;;27.10;70.10;;;;;;4736355;56;21018;-34
2023/06/24 10:25:01;;;;;;;14.38;12.88;;;27.10;70.80;;;;;;4705639;56;21516;-39
2023/06/24 10:30:04;;;;;;;14.57;12.77;;;27.10;70.10;;;;;;4666369;56;21216;-39
2023/06/24 10:35:06;;;;;;;14.43;12.98;;;27.10;70.10;;;;;;4682700;56;21058;-36
2023/06/24 10:40:07;;;;;;;15.45;13.05;;;27.10;70.10;;;;;;4694819;56;21030;-36
2023/06/24 10:45:19;;;;;;;14.10;12.60;;;27.10;70.40;;;;;;4659435;60;20978;-37
2023/06/24 10:50:21;;;;;;;15.05;13.57;;;27.00;69.90;;;;;;4782567;56;20998;-38
2023/06/24 10:55:25;;;;;;;16.10;13.05;;;27.00;70.00;;;;;;4681352;56;20994;-37
2023/06/24 11:00:26;;;;;;;14.87;13.27;;;27.00;70.00;;;;;;4659094;59;22085;-36
2023/06/24 11:05:27;;;;;;;14.87;13.38;;;27.10;70.00;;;;;;4659199;60;20998;-36
2023/06/24 11:10:28;;;;;;;17.00;13.77;;;27.00;70.00;;;;;;4942810;56;21006;-35
2023/06/24 11:15:32;;;;;;;14.57;13.02;;;27.00;69.90;;;;;;4683357;56;21555;-36
2023/06/24 11:20:32;;;;;;;14.30;12.80;;;27.00;69.90;;;;;;4699218;56;20999;-38
2023/06/24 11:25:39;;;;;;;14.63;13.07;;;27.00;69.80;;;;;;4659454;60;21070;-38
2023/06/24 11:30:40;;;;;;;14.87;13.38;;;27.10;69.90;;;;;;4718563;56;21511;-38
2023/06/24 11:35:43;;;;;;;16.30;13.60;;;27.00;69.80;;;;;;4670204;56;21160;-37
2023/06/24 11:40:48;;;;;;;16.37;14.10;;;27.00;69.80;;;;;;4683398;56;21588;-39
2023/06/24 11:45:49;;;;;;;15.65;14.05;;;27.00;69.70;;;;;;4835466;56;21491;-37
2023/06/24 11:50:54;;;;;;;14.70;13.10;;;27.00;69.70;;;;;;4660436;56;21018;-37
2023/06/24 11:55:56;;;;;;;15.18;13.62;;;27.00;69.70;;;;;;4659615;60;21424;-38
2023/06/24 12:00:57;;;;;;;15.23;12.95;;;27.00;69.70;;;;;;4675378;56;21013;-38
2023/06/24 12:05:57;;;;;;;14.77;13.27;;;27.00;70.30;;;;;;4689951;56;21010;-39
2023/06/24 12:10:58;;;;;;;15.95;13.48;;;27.00;69.60;;;;;;4702996;56;21034;-35
2023/06/24 12:15:59;;;;;;;14.95;13.35;;;27.00;69.60;;;;;;4659947;60;21863;-37
2023/06/24 12:21:00;;;;;;;14.77;13.25;;;27.00;69.60;;;;;;4670054;56;21043;-38
2023/06/24 12:26:01;;;;;;;16.45;13.50;;;27.00;69.50;;;;;;4659845;60;21457;-35
2023/06/24 12:31:02;;;;;;;14.35;12.95;;;27.10;69.60;;;;;;4659961;60;21093;-35
2023/06/24 12:36:04;;;;;;;14.40;12.65;;;27.00;69.50;;;;;;4697696;56;21524;-35
2023/06/24 12:41:05;;;;;;;14.77;12.43;;;27.00;69.50;;;;;;4658876;60;21659;-36
2023/06/24 12:46:06;;;;;;;15.68;13.52;;;27.00;69.40;;;;;;4693168;56;21010;-36
2023/06/24 12:51:06;;;;;;;13.45;12.05;;;27.00;69.50;;;;;;4737017;56;21006;-38
2023/06/24 12:56:08;;;;;;;15.07;13.10;;;27.00;69.40;;;;;;4679911;56;21006;-37
2023/06/24 13:01:09;;;;;;;15.02;12.80;;;27.10;69.40;;;;;;4788229;56;21505;-34
2023/06/24 13:06:10;;;;;;;15.18;12.80;;;27.00;69.30;;;;;;4663193;56;20997;-35
2023/06/24 13:11:12;;;;;;;14.23;12.77;;;27.00;69.30;;;;;;4763428;56;21007;-35
2023/06/24 13:16:13;;;;;;;13.55;11.85;;;27.00;69.20;;;;;;4779151;56;20995;-36
2023/06/24 13:21:14;;;;;;;15.65;13.50;;;27.00;69.20;;;;;;4659166;60;21465;-36
2023/06/24 13:26:15;;;;;;;15.00;12.23;;;27.00;69.20;;;;;;4677976;56;21037;-35
2023/06/24 13:31:16;;;;;;;13.70;12.23;;;27.00;69.20;;;;;;4659734;60;21553;-35
2023/06/24 13:36:31;;;;;;;14.93;13.32;;;27.00;69.10;;;;;;4706523;56;22333;-37
2023/06/24 13:41:32;;;;;;;14.43;12.82;;;27.00;69.10;;;;;;4667578;56;21571;-34
2023/06/24 13:46:33;;;;;;;14.50;12.60;;;27.00;69.10;;;;;;4691236;55;21437;-36
2023/06/24 13:51:34;;;;;;;15.93;12.30;;;27.00;69.10;;;;;;4699634;56;21002;-36
2023/06/24 13:56:38;;;;;;;14.75;12.10;;;27.00;69.10;;;;;;4669885;56;21527;-37
2023/06/24 14:01:39;;;;;;;13.75;12.20;;;27.00;69.10;;;;;;4753192;56;21552;-36
2023/06/24 14:06:40;;;;;;;14.38;12.90;;;27.00;69.00;;;;;;4705678;56;21003;-34
2023/06/24 14:11:41;;;;;;;14.20;12.63;;;27.00;69.00;;;;;;4664885;56;21116;-36
2023/06/24 14:16:41;;;;;;;14.60;13.10;;;27.00;69.00;;;;;;4873395;56;21022;-35
2023/06/24 14:21:42;;;;;;;13.50;12.20;;;27.10;69.00;;;;;;4702212;56;21468;-36
2023/06/24 14:26:44;;;;;;;13.65;12.07;;;27.00;69.00;;;;;;4659048;60;21082;-35
2023/06/24 14:31:45;;;;;;;13.45;12.05;;;27.00;68.90;;;;;;4665283;56;22198;-37
2023/06/24 14:36:45;;;;;;;13.05;11.50;;;27.00;69.00;;;;;;4659102;60;21022;-38
2023/06/24 14:41:46;;;;;;;12.65;11.35;;;27.00;69.60;;;;;;4753779;56;21066;-36
2023/06/24 14:46:47;;;;;;;12.52;11.32;;;27.00;68.90;;;;;;4679249;56;21109;-36
2023/06/24 14:51:48;;;;;;;14.05;11.77;;;27.00;69.00;;;;;;4680757;56;21006;-37
2023/06/24 14:56:49;;;;;;;12.90;11.43;;;27.00;68.90;;;;;;4665668;56;21456;-37
2023/06/24 15:01:50;;;;;;;14.75;11.80;;;27.00;68.90;;;;;;4658451;60;21071;-35
2023/06/24 15:06:51;;;;;;;13.00;11.60;;;27.00;68.90;;;;;;4659433;60;21136;-37
2023/06/24 15:11:52;;;;;;;13.75;11.60;;;27.00;68.90;;;;;;4699625;56;21002;-38
2023/06/24 15:16:53;;;;;;;13.38;11.82;;;27.00;69.00;;;;;;4659525;60;21002;-35
2023/06/24 15:21:54;;;;;;;12.48;11.18;;;27.00;68.90;;;;;;4728193;56;21476;-37
2023/06/24 15:26:57;;;;;;;12.82;11.52;;;27.00;68.90;;;;;;4753977;56;20995;-36
2023/06/24 15:31:58;;;;;;;12.60;11.27;;;27.00;68.90;;;;;;4660308;56;21552;-37
2023/06/24 15:36:59;;;;;;;14.80;11.88;;;27.00;68.90;;;;;;4659009;60;21022;-37
2023/06/24 15:42:00;;;;;;;13.30;11.20;;;27.10;69.00;;;;;;4677144;56;21468;-38
2023/06/24 15:47:01;;;;;;;12.85;11.45;;;27.00;68.90;;;;;;4667856;56;21062;-36
2023/06/24 15:52:01;;;;;;;12.43;11.23;;;27.00;68.90;;;;;;4706030;56;21033;-33
2023/06/24 15:57:02;;;;;;;13.13;11.70;;;27.00;68.90;;;;;;4687810;56;21520;-37
2023/06/24 16:02:03;;;;;;;12.85;11.55;;;27.00;68.90;;;;;;4702705;56;21085;-36
2023/06/24 16:07:04;;;;;;;13.02;11.55;;;27.00;68.90;;;;;;4703994;56;21509;-36
2023/06/24 16:12:05;;;;;;;12.45;11.15;;;27.00;68.90;;;;;;4678768;56;21047;-35
2023/06/24 16:17:06;;;;;;;13.32;11.82;;;27.00;68.80;;;;;;4738087;56;21109;-38
2023/06/24 16:22:07;;;;;;;14.00;12.50;;;27.00;68.80;;;;;;4658698;60;21145;-37
2023/06/24 16:27:08;;;;;;;13.70;11.70;;;27.00;68.90;;;;;;4659635;60;21010;-35
2023/06/24 16:32:09;;;;;;;13.10;11.45;;;27.00;68.80;;;;;;4735225;56;21062;-34
2023/06/24 16:37:10;;;;;;;13.62;12.20;;;27.00;68.90;;;;;;4660089;56;21014;-35
2023/06/24 16:42:11;;;;;;;13.55;11.70;;;27.00;68.80;;;;;;4679297;56;21560;-36
2023/06/24 16:47:12;;;;;;;12.60;11.18;;;27.00;68.80;;;;;;4660973;56;21126;-33
2023/06/24 16:52:13;;;;;;;12.95;11.45;;;27.00;68.80;;;;;;4659577;60;21540;-37
2023/06/24 16:57:13;;;;;;;14.85;11.48;;;27.00;68.80;;;;;;4659082;57;20986;-35
2023/06/24 17:02:14;;;;;;;13.73;11.65;;;27.00;68.80;;;;;;4659590;56;21069;-35
2023/06/24 17:07:15;;;;;;;14.50;11.88;;;27.00;68.80;;;;;;4659412;60;21070;-36
2023/06/24 17:12:16;;;;;;;13.57;11.12;;;27.00;68.80;;;;;;4659593;60;21014;-37
2023/06/24 17:17:17;;;;;;;13.00;10.82;;;27.00;68.80;;;;;;4675933;56;21651;-31
2023/06/24 17:22:18;;;;;;;13.68;12.27;;;27.00;68.80;;;;;;4677902;56;20998;-36
2023/06/24 17:27:19;;;;;;;12.82;10.90;;;27.00;68.70;;;;;;4672970;56;21066;-34
2023/06/24 17:32:20;;;;;;;12.90;11.12;;;27.00;68.70;;;;;;4707943;56;21482;-34
2023/06/24 17:37:21;;;;;;;12.35;10.98;;;27.00;68.70;;;;;;4659840;60;21014;-37
2023/06/24 17:42:23;;;;;;;11.65;10.00;;;27.00;68.70;;;;;;4762781;56;20998;-37
2023/06/24 17:47:24;;;;;;;12.27;10.88;;;27.00;68.70;;;;;;4659516;60;20990;-35
2023/06/24 17:52:25;;;;;;;11.73;10.43;;;27.00;68.70;;;;;;4671325;56;21062;-36
2023/06/24 17:57:26;;;;;;;11.15;9.95;;;27.00;68.70;;;;;;4659818;60;21453;-35
2023/06/24 18:02:29;;;;;;;12.82;10.88;;;27.00;68.60;;;;;;4729319;56;21062;-35
2023/06/24 18:07:30;;;;;;;12.15;10.95;;;27.00;68.70;;;;;;4702303;56;21039;-37
2023/06/24 18:12:31;;;;;;;13.23;11.02;;;27.00;68.70;;;;;;4661821;56;21006;-37
2023/06/24 18:17:32;;;;;;;12.23;10.93;;;27.00;69.30;;;;;;4659994;60;21503;-36
2023/06/24 18:22:34;;;;;;;12.05;10.75;;;27.00;68.70;;;;;;4692629;56;21086;-37
2023/06/24 18:27:35;;;;;;;11.88;10.68;;;27.00;69.30;;;;;;4680448;56;21014;-36
2023/06/24 18:32:36;;;;;;;13.30;11.90;;;27.00;68.70;;;;;;4719595;55;21631;-39
2023/06/24 18:37:37;;;;;;;11.95;10.73;;;27.00;68.70;;;;;;4659134;57;21089;-38
2023/06/24 18:42:38;;;;;;;12.15;10.80;;;27.00;68.70;;;;;;4696512;56;21575;-35
2023/06/24 18:47:38;;;;;;;11.20;10.10;;;27.00;68.70;;;;;;4701282;56;21052;-36
2023/06/24 18:52:39;;;;;;;11.85;10.65;;;27.00;68.70;;;;;;4659328;60;21483;-35
2023/06/24 18:57:40;;;;;;;11.43;10.23;;;27.00;68.70;;;;;;4707440;56;21002;-36
2023/06/24 19:02:41;;;;;;;12.05;10.85;;;27.00;68.70;;;;;;4658944;60;21504;-36
2023/06/24 19:07:42;;;;;;;11.52;10.32;;;27.00;68.70;;;;;;4659683;60;21062;-32
2023/06/24 19:12:43;;;;;;;11.30;10.10;;;27.00;68.70;;;;;;4961435;56;21517;-37
2023/06/24 19:17:44;;;;;;;12.77;11.48;;;27.00;68.70;;;;;;4695144;56;20998;-40
2023/06/24 19:22:45;;;;;;;11.63;10.43;;;27.00;68.70;;;;;;4659064;57;21550;-39
2023/06/24 19:27:46;;;;;;;11.82;10.63;;;27.00;68.70;;;;;;4681482;56;21003;-35
2023/06/24 19:32:46;;;;;;;11.12;9.63;;;27.00;68.70;;;;;;4751926;56;20997;-35
2023/06/24 19:37:48;;;;;;;12.75;11.45;;;27.00;68.80;;;;;;4659348;60;21067;-33
2023/06/24 19:42:48;;;;;;;12.07;10.25;;;27.00;68.70;;;;;;4705844;56;21022;-36
2023/06/24 19:47:49;;;;;;;11.57;10.40;;;27.00;68.70;;;;;;4830337;56;20997;-36
2023/06/24 19:52:50;;;;;;;11.30;10.10;;;27.00;68.70;;;;;;4806194;56;21014;-35
2023/06/24 19:57:54;;;;;;;11.35;10.25;;;27.00;68.70;;;;;;4755309;56;20986;-38
2023/06/24 20:02:58;;;;;;;10.27;9.20;;;27.00;68.70;;;;;;4659894;60;21089;-36
2023/06/24 20:07:59;;;;;;;11.15;10.05;;;26.90;68.70;;;;;;4665444;56;21561;-37
2023/06/24 20:13:00;;;;;;;11.63;10.02;;;27.00;68.70;;;;;;4712981;56;21010;-38
2023/06/24 20:18:01;;;;;;;11.02;9.93;;;27.00;68.70;;;;;;4696931;55;21078;-36
2023/06/24 20:23:02;;;;;;;10.88;9.73;;;27.00;68.70;;;;;;4659881;60;21456;-37
2023/06/24 20:28:04;;;;;;;11.02;9.93;;;26.90;68.60;;;;;;4731326;56;21002;-37
2023/06/24 20:33:05;;;;;;;11.75;10.55;;;27.00;68.70;;;;;;4659768;60;21469;-33
2023/06/24 20:38:06;;;;;;;11.23;10.07;;;26.90;68.60;;;;;;4770362;56;21082;-38
2023/06/24 20:43:07;;;;;;;11.30;9.98;;;27.00;68.80;;;;;;4659873;56;21022;-35
2023/06/24 20:48:08;;;;;;;10.80;9.70;;;26.90;68.60;;;;;;4733609;56;21030;-37
2023/06/24 20:53:09;;;;;;;11.40;10.02;;;27.00;68.70;;;;;;4747838;56;20998;-37
2023/06/24 20:58:09;;;;;;;11.15;10.00;;;26.90;68.60;;;;;;4712707;56;21054;-36
2023/06/24 21:03:10;;;;;;;10.65;9.55;;;27.00;68.70;;;;;;4674388;56;21082;-39
2023/06/24 21:08:11;;;;;;;11.68;10.15;;;26.90;68.60;;;;;;4659378;60;21094;-34
2023/06/24 21:13:12;;;;;;;10.88;9.77;;;26.90;68.70;;;;;;4660068;60;21081;-35
2023/06/24 21:18:13;;;;;;;12.20;9.63;;;26.90;68.60;;;;;;4659495;60;20994;-37
2023/06/24 21:23:14;;;;;;;10.90;9.80;;;26.90;68.60;;;;;;4749550;56;21042;-35
2023/06/24 21:28:17;;;;;;;11.35;10.20;;;27.00;68.70;;;;;;4659643;60;21010;-36
2023/06/24 21:33:17;;;;;;;11.07;9.98;;;26.90;68.60;;;;;;4659703;60;21014;-38
2023/06/24 21:38:18;;;;;;;11.07;9.98;;;26.90;68.60;;;;;;4660952;56;21532;-35
2023/06/24 21:43:19;;;;;;;11.05;9.93;;;27.00;68.70;;;;;;4659713;60;21525;-37
2023/06/24 21:48:20;;;;;;;10.18;9.10;;;26.90;68.70;;;;;;4659494;60;21003;-37
2023/06/24 21:53:21;;;;;;;10.40;9.38;;;26.90;68.70;;;;;;4727138;56;21480;-35
2023/06/24 21:58:22;;;;;;;10.18;9.18;;;26.90;68.60;;;;;;4660031;60;21556;-34
2023/06/24 22:03:23;;;;;;;11.02;9.65;;;26.90;68.60;;;;;;4659321;56;21074;-31
2023/06/24 22:08:24;;;;;;;11.07;9.98;;;26.90;68.70;;;;;;4659772;60;21106;-35
2023/06/24 22:13:25;;;;;;;10.15;9.10;;;26.90;68.60;;;;;;4678778;56;21109;-36
2023/06/24 22:18:26;;;;;;;10.77;9.68;;;26.90;68.70;;;;;;4659723;56;21022;-37
2023/06/24 22:23:26;;;;;;;10.13;9.07;;;26.90;68.70;;;;;;4724474;56;21018;-35
2023/06/24 22:28:27;;;;;;;10.88;9.32;;;26.90;68.60;;;;;;4675255;56;21714;-36
2023/06/24 22:33:28;;;;;;;9.60;8.63;;;26.90;68.60;;;;;;4661580;56;21522;-38
2023/06/24 22:38:29;;;;;;;9.82;8.88;;;26.90;68.70;;;;;;4750511;56;22024;-36
2023/06/24 22:43:30;;;;;;;10.40;8.88;;;26.90;68.70;;;;;;4659751;60;21387;-35
2023/06/24 22:48:30;;;;;;;10.43;8.88;;;27.00;68.80;;;;;;4697153;56;21457;-35
2023/06/24 22:53:31;;;;;;;10.45;9.45;;;26.90;68.70;;;;;;4731535;56;20990;-36
2023/06/24 22:58:32;;;;;;;10.07;9.13;;;26.90;68.70;;;;;;4740974;56;21112;-37
2023/06/24 23:03:34;;;;;;;10.13;9.13;;;27.00;68.80;;;;;;4710875;56;21809;-37
2023/06/24 23:08:35;;;;;;;9.88;8.60;;;26.90;68.70;;;;;;4677246;56;20978;-33
2023/06/24 23:13:37;;;;;;;9.52;8.63;;;26.90;68.70;;;;;;4752617;56;21382;-37
2023/06/24 23:18:39;;;;;;;10.90;9.50;;;27.00;68.80;;;;;;4743031;56;21138;-37
2023/06/24 23:23:40;;;;;;;9.48;8.57;;;27.00;68.80;;;;;;4712179;56;21026;-40
2023/06/24 23:28:44;;;;;;;10.02;8.25;;;27.00;68.90;;;;;;4701180;56;21026;-37
2023/06/24 23:33:46;;;;;;;9.52;8.60;;;26.90;68.80;;;;;;4687941;56;21480;-37
2023/06/24 23:38:47;;;;;;;9.52;8.63;;;26.90;68.80;;;;;;4699433;56;21046;-38
2023/06/24 23:43:49;;;;;;;9.73;8.82;;;26.90;68.80;;;;;;4719898;56;20982;-39
2023/06/24 23:48:49;;;;;;;9.98;9.07;;;27.00;68.90;;;;;;4699449;56;21035;-37
2023/06/24 23:53:50;;;;;;;11.20;8.90;;;27.00;68.90;;;;;;4742607;56;20983;-37
2023/06/24 23:58:51;;;;;;;9.55;8.63;;;26.90;68.90;;;;;;4659840;60;21034;-38
